Time,TemperatureF,DewpointF,PressureIn,WindDirection,WindDirectionDegrees,WindSpeedMPH,WindSpeedGustMPH,Humidity,HourlyPrecipIn,Conditions,Clouds,dailyrainin,SoftwareType,DateUTC
2013-04-21 00:00:00,64.7,63.5,30.04,NE,45,0.0,2.0,96,0.01,,---,0.00,VWS V14.01,2013-04-21 04:00:00,
2013-04-21 00:10:00,64.5,63.3,30.04,East,90,0.0,1.0,96,0.01,,---,0.00,VWS V14.01,2013-04-21 04:10:00,
2013-04-21 00:20:00,64.3,63.1,30.02,ENE,68,0.0,3.0,96,0.01,,---,0.00,VWS V14.01,2013-04-21 04:20:00,
2013-04-21 00:30:00,64.0,62.8,30.04,ENE,68,0.0,5.0,96,0.01,,---,0.00,VWS V14.01,2013-04-21 04:30:00,
2013-04-21 00:40:00,63.5,62.3,30.04,NE,45,0.0,1.0,96,0.00,,---,0.00,VWS V14.01,2013-04-21 04:40:00,
2013-04-21 00:50:00,63.2,62.0,30.03,NNE,22,0.0,3.0,96,0.00,,---,0.00,VWS V14.01,2013-04-21 04:50:00,
2013-04-21 01:00:00,62.7,61.5,30.03,NE,45,0.0,2.0,96,0.00,,---,0.00,VWS V14.01,2013-04-21 05:00:00,
2013-04-21 01:10:00,62.3,61.2,30.03,ENE,68,0.0,3.0,96,0.00,,---,0.00,VWS V14.01,2013-04-21 05:10:00,
2013-04-21 01:20:00,62.0,60.8,30.03,ENE,68,0.0,4.0,96,0.00,,---,0.00,VWS V14.01,2013-04-21 05:20:00,
2013-04-21 01:30:00,61.6,60.5,30.02,NE,45,0.0,3.0,96,0.00,,---,0.00,VWS V14.01,2013-04-21 05:30:00,
2013-04-21 01:40:00,61.6,60.5,30.02,ENE,68,0.0,3.0,96,0.00,,---,0.00,VWS V14.01,2013-04-21 05:40:00,
2013-04-21 01:50:00,61.5,60.3,30.01,ENE,68,0.0,2.0,96,0.00,,---,0.00,VWS V14.01,2013-04-21 05:50:00,
2013-04-21 02:00:00,61.6,60.5,30.01,ENE,68,0.0,1.0,96,0.00,,---,0.00,VWS V14.01,2013-04-21 06:00:00,
2013-04-21 02:10:00,61.8,60.7,30.01,ENE,68,0.0,0.0,96,0.00,,---,0.00,VWS V14.01,2013-04-21 06:10:00,
2013-04-21 02:20:00,61.8,60.7,30.00,East,90,0.0,1.0,96,0.00,,---,0.00,VWS V14.01,2013-04-21 06:20:00,
2013-04-21 02:30:00,62.0,60.8,30.00,East,90,0.0,0.0,96,0.00,,---,0.00,VWS V14.01,2013-04-21 06:30:00,
2013-04-21 02:40:00,62.0,60.8,30.00,ENE,68,0.0,6.0,96,0.00,,---,0.00,VWS V14.01,2013-04-21 06:40:00,
2013-04-21 02:50:00,61.8,60.7,29.99,East,90,0.0,1.0,96,0.00,,---,0.00,VWS V14.01,2013-04-21 06:50:00,
2013-04-21 03:00:00,61.8,60.7,29.99,NE,45,0.0,2.0,96,0.00,,---,0.00,VWS V14.01,2013-04-21 07:00:00,
2013-04-21 03:10:00,61.8,60.7,29.99,NE,45,0.0,2.0,96,0.00,,---,0.00,VWS V14.01,2013-04-21 07:10:00,
2013-04-21 03:20:00,61.8,60.7,29.98,NE,45,0.0,2.0,96,0.00,,---,0.00,VWS V14.01,2013-04-21 07:20:00,
2013-04-21 03:30:00,62.0,60.8,29.98,East,90,0.0,1.0,96,0.00,,---,0.00,VWS V14.01,2013-04-21 07:30:00,
2013-04-21 03:40:00,62.0,60.8,29.98,ENE,68,0.0,2.0,96,0.00,,---,0.00,VWS V14.01,2013-04-21 07:40:00,
2013-04-21 03:50:00,62.0,60.8,29.98,ENE,68,0.0,1.0,96,0.00,,---,0.00,VWS V14.01,2013-04-21 07:50:00,
2013-04-21 04:00:00,62.1,61.0,29.99,ENE,68,0.0,0.0,96,0.00,,---,0.00,VWS V14.01,2013-04-21 08:00:00,
2013-04-21 04:10:00,62.1,61.0,29.99,ENE,68,0.0,0.0,96,0.00,,---,0.00,VWS V14.01,2013-04-21 08:10:00,
2013-04-21 04:20:00,62.1,61.0,29.98,NE,45,0.0,2.0,96,0.00,,---,0.00,VWS V14.01,2013-04-21 08:20:00,
2013-04-21 04:30:00,62.0,60.8,29.97,East,90,0.0,1.0,96,0.00,,---,0.00,VWS V14.01,2013-04-21 08:30:00,
2013-04-21 04:40:00,61.6,60.5,29.97,East,90,0.0,0.0,96,0.00,,---,0.00,VWS V14.01,2013-04-21 08:40:00,
2013-04-21 04:50:00,61.6,60.5,29.98,East,90,0.0,0.0,96,0.00,,---,0.00,VWS V14.01,2013-04-21 08:50:00,
2013-04-21 05:00:00,61.6,60.5,29.98,NE,45,0.0,1.0,96,0.00,,---,0.00,VWS V14.01,2013-04-21 09:00:00,
2013-04-21 05:10:00,61.5,60.3,29.98,ENE,68,0.0,1.0,96,0.00,,---,0.00,VWS V14.01,2013-04-21 09:10:00,
2013-04-21 05:20:00,61.5,60.3,29.97,ENE,68,0.0,0.0,96,0.00,,---,0.00,VWS V14.01,2013-04-21 09:20:00,
2013-04-21 05:30:00,61.5,60.3,29.98,ENE,68,0.0,0.0,96,0.00,,---,0.00,VWS V14.01,2013-04-21 09:30:00,
2013-04-21 05:40:00,61.5,60.3,29.98,ENE,68,0.0,1.0,96,0.00,,---,0.00,VWS V14.01,2013-04-21 09:40:00,
2013-04-21 05:50:00,61.5,60.3,29.98,ENE,68,0.0,0.0,96,0.00,,---,0.00,VWS V14.01,2013-04-21 09:50:00,
2013-04-21 06:00:00,61.8,60.7,29.98,ENE,68,0.0,0.0,96,0.00,,---,0.00,VWS V14.01,2013-04-21 10:00:00,
2013-04-21 06:10:00,62.0,60.8,29.98,ENE,68,0.0,1.0,96,0.00,,---,0.00,VWS V14.01,2013-04-21 10:10:00,
2013-04-21 06:20:00,62.0,60.8,30.00,ENE,68,0.0,0.0,96,0.00,,---,0.00,VWS V14.01,2013-04-21 10:20:00,
2013-04-21 06:30:00,62.1,61.0,29.99,NNE,22,0.0,1.0,96,0.00,,---,0.00,VWS V14.01,2013-04-21 10:30:00,
2013-04-21 06:40:00,62.3,61.2,29.99,ENE,68,0.0,1.0,96,0.00,,---,0.00,VWS V14.01,2013-04-21 10:40:00,
2013-04-21 06:50:00,62.3,61.2,29.99,East,90,0.0,5.0,96,0.00,,---,0.00,VWS V14.01,2013-04-21 10:50:00,
2013-04-21 07:00:00,62.4,61.2,30.00,ENE,68,0.0,3.0,96,0.00,,---,0.00,VWS V14.01,2013-04-21 11:00:00,
2013-04-21 07:10:00,62.6,61.5,30.00,ENE,68,0.0,1.0,96,0.00,,---,0.00,VWS V14.01,2013-04-21 11:10:00,
2013-04-21 07:20:00,62.7,61.5,30.01,ENE,68,0.0,0.0,96,0.00,,---,0.00,VWS V14.01,2013-04-21 11:20:00,
2013-04-21 07:30:00,62.9,61.8,30.01,ENE,68,0.0,1.0,96,0.00,,---,0.00,VWS V14.01,2013-04-21 11:30:00,
2013-04-21 07:40:00,63.2,62.0,30.01,ENE,68,0.0,0.0,96,0.00,,---,0.00,VWS V14.01,2013-04-21 11:40:00,
2013-04-21 07:50:00,63.4,62.2,30.02,ENE,68,0.0,0.0,96,0.00,,---,0.00,VWS V14.01,2013-04-21 11:50:00,
2013-04-21 08:00:00,63.7,62.5,30.02,ENE,68,0.0,0.0,96,0.00,,---,0.00,VWS V14.01,2013-04-21 12:00:00,
2013-04-21 08:10:00,64.2,63.0,30.02,ENE,68,0.0,0.0,96,0.00,,---,0.00,VWS V14.01,2013-04-21 12:10:00,
2013-04-21 08:20:00,64.7,63.5,30.01,ESE,112,0.0,3.0,96,0.00,,---,0.00,VWS V14.01,2013-04-21 12:20:00,
2013-04-21 08:30:00,65.3,64.1,30.01,ESE,112,0.0,0.0,96,0.00,,---,0.00,VWS V14.01,2013-04-21 12:30:00,
2013-04-21 08:40:00,65.8,64.6,30.01,NE,45,0.0,6.0,96,0.00,,---,0.00,VWS V14.01,2013-04-21 12:40:00,
2013-04-21 08:50:00,66.4,65.2,30.01,NE,45,0.0,1.0,96,0.00,,---,0.00,VWS V14.01,2013-04-21 12:50:00,
2013-04-21 09:00:00,66.6,65.4,30.01,NE,45,0.0,2.0,96,0.00,,---,0.00,VWS V14.01,2013-04-21 13:00:00,
2013-04-21 09:10:00,67.4,66.2,30.01,NE,45,0.0,1.0,96,0.00,,---,0.00,VWS V14.01,2013-04-21 13:10:00,
2013-04-21 09:20:00,68.4,67.2,30.02,NE,45,0.0,1.0,96,0.00,,---,0.00,VWS V14.01,2013-04-21 13:20:00,
2013-04-21 09:30:00,69.3,68.1,30.02,ENE,68,0.0,6.0,96,0.00,,---,0.00,VWS V14.01,2013-04-21 13:30:00,
2013-04-21 09:40:00,69.6,68.4,30.02,ESE,112,0.0,2.0,96,0.00,,---,0.00,VWS V14.01,2013-04-21 13:40:00,
2013-04-21 09:50:00,70.3,69.1,30.02,SE,135,0.0,7.0,96,0.00,,---,0.00,VWS V14.01,2013-04-21 13:50:00,
2013-04-21 10:00:00,70.8,69.3,30.02,ESE,112,0.0,3.0,95,0.00,,---,0.00,VWS V14.01,2013-04-21 14:00:00,
2013-04-21 10:10:00,71.6,69.5,30.02,NE,45,0.0,2.0,93,0.00,,---,0.00,VWS V14.01,2013-04-21 14:10:00,
2013-04-21 10:20:00,72.5,70.1,30.02,ENE,68,0.0,3.0,92,0.00,,---,0.00,VWS V14.01,2013-04-21 14:20:00,
2013-04-21 10:30:00,73.5,70.7,30.02,SSE,158,0.0,5.0,91,0.00,,---,0.00,VWS V14.01,2013-04-21 14:30:00,
2013-04-21 10:40:00,74.4,71.3,30.02,ENE,68,0.0,4.0,90,0.00,,---,0.00,VWS V14.01,2013-04-21 14:40:00,
2013-04-21 10:50:00,75.6,71.8,30.02,SE,135,0.0,3.0,88,0.00,,---,0.00,VWS V14.01,2013-04-21 14:50:00,
2013-04-21 11:00:00,75.6,71.8,30.02,SE,135,1.0,7.0,88,0.00,,---,0.00,VWS V14.01,2013-04-21 15:00:00,
2013-04-21 11:10:00,76.5,72.7,30.02,SSE,158,1.0,6.0,88,0.00,,---,0.00,VWS V14.01,2013-04-21 15:10:00,
2013-04-21 11:20:00,76.8,73.0,30.03,South,180,0.0,5.0,88,0.00,,---,0.00,VWS V14.01,2013-04-21 15:20:00,
2013-04-21 11:30:00,77.6,73.1,30.02,SE,135,0.0,3.0,86,0.00,,---,0.00,VWS V14.01,2013-04-21 15:30:00,
2013-04-21 11:40:00,78.1,72.9,30.02,ENE,68,0.0,1.0,84,0.00,,---,0.00,VWS V14.01,2013-04-21 15:40:00,
2013-04-21 11:50:00,79.2,73.6,30.02,ENE,68,0.0,3.0,83,0.00,,---,0.00,VWS V14.01,2013-04-21 15:50:00,
2013-04-21 12:00:00,79.4,74.2,30.01,SE,135,1.0,5.0,84,0.00,,---,0.00,VWS V14.01,2013-04-21 16:00:00,
2013-04-21 12:10:00,80.5,74.5,30.01,SSE,158,0.0,2.0,82,0.00,,---,0.00,VWS V14.01,2013-04-21 16:10:00,
2013-04-21 12:20:00,80.7,74.7,30.01,ESE,112,0.0,5.0,82,0.00,,---,0.00,VWS V14.01,2013-04-21 16:20:00,
2013-04-21 12:30:00,81.4,73.9,30.01,East,90,0.0,3.0,78,0.00,,---,0.00,VWS V14.01,2013-04-21 16:30:00,
2013-04-21 12:40:00,81.4,73.9,30.01,SE,135,1.0,12.0,78,0.00,,---,0.00,VWS V14.01,2013-04-21 16:40:00,
2013-04-21 12:50:00,81.8,73.1,30.01,ESE,112,0.0,6.0,75,0.00,,---,0.00,VWS V14.01,2013-04-21 16:50:00,
2013-04-21 13:00:00,82.6,75.1,30.00,SSE,158,0.0,5.0,78,0.00,,---,0.00,VWS V14.01,2013-04-21 17:00:00,
2013-04-21 13:10:00,82.6,74.3,30.00,East,90,0.0,7.0,76,0.00,,---,0.00,VWS V14.01,2013-04-21 17:10:00,
2013-04-21 13:20:00,83.0,74.3,30.00,SSE,158,0.0,6.0,75,0.00,,---,0.00,VWS V14.01,2013-04-21 17:20:00,
2013-04-21 13:30:00,84.1,76.1,29.99,ESE,112,1.0,6.0,77,0.00,,---,0.00,VWS V14.01,2013-04-21 17:30:00,
2013-04-21 13:40:00,83.6,74.0,29.99,East,90,2.0,6.0,73,0.00,,---,0.00,VWS V14.01,2013-04-21 17:40:00,
2013-04-21 13:50:00,84.1,74.1,30.00,East,90,1.0,6.0,72,0.00,,---,0.00,VWS V14.01,2013-04-21 17:50:00,
2013-04-21 14:00:00,84.0,74.0,29.99,NE,45,1.0,3.0,72,0.00,,---,0.00,VWS V14.01,2013-04-21 18:00:00,
2013-04-21 14:10:00,84.7,74.7,29.99,ENE,68,1.0,7.0,72,0.00,,---,0.00,VWS V14.01,2013-04-21 18:10:00,
2013-04-21 14:20:00,84.3,75.1,29.98,SSE,158,2.0,7.0,74,0.00,,---,0.00,VWS V14.01,2013-04-21 18:20:00,
2013-04-21 14:30:00,84.5,74.1,29.96,East,90,1.0,5.0,71,0.00,,---,0.00,VWS V14.01,2013-04-21 18:30:00,
2013-04-21 14:40:00,85.1,73.4,29.96,East,90,1.0,6.0,68,0.00,,---,0.00,VWS V14.01,2013-04-21 18:40:00,
2013-04-21 14:50:00,84.9,74.4,29.96,ENE,68,1.0,3.0,71,0.00,,---,0.00,VWS V14.01,2013-04-21 18:50:00,
2013-04-21 15:00:00,84.1,74.5,29.96,SSE,158,1.0,7.0,73,0.00,,---,0.00,VWS V14.01,2013-04-21 19:00:00,
2013-04-21 15:10:00,83.4,73.4,29.96,SSE,158,1.0,5.0,72,0.00,,---,0.00,VWS V14.01,2013-04-21 19:10:00,
2013-04-21 15:20:00,83.8,73.4,29.95,SSE,158,0.0,0.0,71,0.00,,---,0.00,VWS V14.01,2013-04-21 19:20:00,
2013-04-21 15:30:00,84.1,72.4,29.94,SSE,158,0.0,0.0,68,0.00,,---,0.00,VWS V14.01,2013-04-21 19:30:00,
2013-04-21 15:40:00,84.3,73.0,29.94,SSE,158,0.0,0.0,69,0.00,,---,0.00,VWS V14.01,2013-04-21 19:40:00,
2013-04-21 15:50:00,84.7,74.3,29.93,SSE,158,0.0,0.0,71,0.00,,---,0.00,VWS V14.01,2013-04-21 19:50:00,
2013-04-21 16:00:00,84.1,73.7,29.92,SSE,158,0.0,0.0,71,0.00,,---,0.00,VWS V14.01,2013-04-21 20:00:00,
2013-04-21 16:10:00,84.1,73.7,29.92,SSE,158,0.0,0.0,71,0.00,,---,0.00,VWS V14.01,2013-04-21 20:10:00,
2013-04-21 16:20:00,84.0,73.6,29.92,SSE,158,0.0,0.0,71,0.00,,---,0.00,VWS V14.01,2013-04-21 20:20:00,
2013-04-21 16:30:00,84.0,74.0,29.91,SSE,158,0.0,0.0,72,0.00,,---,0.00,VWS V14.01,2013-04-21 20:30:00,
2013-04-21 16:40:00,83.8,73.8,29.91,SSE,158,0.0,0.0,72,0.00,,---,0.00,VWS V14.01,2013-04-21 20:40:00,
2013-04-21 16:50:00,82.6,73.5,29.92,SSE,158,0.0,0.0,74,0.00,,---,0.00,VWS V14.01,2013-04-21 20:50:00,
2013-04-21 17:00:00,82.4,74.1,29.92,SSE,158,0.0,0.0,76,0.00,,---,0.00,VWS V14.01,2013-04-21 21:00:00,
2013-04-21 17:10:00,81.8,73.1,29.92,NW,315,0.0,1.0,75,0.00,,---,0.00,VWS V14.01,2013-04-21 21:10:00,
2013-04-21 17:20:00,81.6,72.9,29.91,NW,315,0.0,0.0,75,0.00,,---,0.00,VWS V14.01,2013-04-21 21:20:00,
2013-04-21 17:30:00,81.6,72.9,29.92,NW,315,1.0,4.0,75,0.00,,---,0.00,VWS V14.01,2013-04-21 21:30:00,
2013-04-21 17:40:00,81.4,73.5,29.92,NW,315,0.0,2.0,77,0.00,,---,0.00,VWS V14.01,2013-04-21 21:40:00,
2013-04-21 17:50:00,81.1,73.6,29.91,NNW,338,0.0,1.0,78,0.00,,---,0.00,VWS V14.01,2013-04-21 21:50:00,
2013-04-21 18:00:00,80.3,73.6,29.92,NNW,338,1.0,7.0,80,0.00,,---,0.00,VWS V14.01,2013-04-21 22:00:00,
2013-04-21 18:10:00,79.8,73.8,29.92,NW,315,1.0,6.0,82,0.00,,---,0.00,VWS V14.01,2013-04-21 22:10:00,
2013-04-21 18:20:00,79.6,73.3,29.93,NW,315,0.0,3.0,81,0.00,,---,0.00,VWS V14.01,2013-04-21 22:20:00,
2013-04-21 18:30:00,79.6,73.3,29.93,NW,315,0.0,0.0,81,0.00,,---,0.00,VWS V14.01,2013-04-21 22:30:00,
2013-04-21 18:40:00,79.2,73.2,29.93,NW,315,0.0,0.0,82,0.00,,---,0.00,VWS V14.01,2013-04-21 22:40:00,
2013-04-21 18:50:00,79.0,73.4,29.94,NW,315,0.0,0.0,83,0.00,,---,0.00,VWS V14.01,2013-04-21 22:50:00,
2013-04-21 19:00:00,78.6,73.0,29.95,NW,315,0.0,3.0,83,0.00,,---,0.00,VWS V14.01,2013-04-21 23:00:00,
2013-04-21 19:10:00,78.3,73.4,29.95,NW,315,0.0,0.0,85,0.00,,---,0.00,VWS V14.01,2013-04-21 23:10:00,
2013-04-21 19:20:00,77.7,73.2,29.95,North,0,0.0,2.0,86,0.00,,---,0.00,VWS V14.01,2013-04-21 23:20:00,
2013-04-21 19:30:00,76.7,73.2,29.96,North,0,0.0,4.0,89,0.00,,---,0.00,VWS V14.01,2013-04-21 23:30:00,
2013-04-21 19:40:00,75.8,73.9,29.96,NNW,338,0.0,2.0,94,0.00,,---,0.00,VWS V14.01,2013-04-21 23:40:00,
2013-04-21 19:50:00,75.3,74.1,29.97,NW,315,0.0,7.0,96,0.00,,---,0.00,VWS V14.01,2013-04-21 23:50:00,
2013-04-21 20:00:00,74.9,73.7,29.96,NW,315,0.0,0.0,96,0.00,,---,0.00,VWS V14.01,2013-04-22 00:00:00,
2013-04-21 20:10:00,74.6,73.4,29.96,East,90,0.0,3.0,96,0.00,,---,0.00,VWS V14.01,2013-04-22 00:10:00,
2013-04-21 20:20:00,74.4,73.2,29.97,East,90,0.0,0.0,96,0.00,,---,0.00,VWS V14.01,2013-04-22 00:20:00,
2013-04-21 20:30:00,74.4,73.2,29.96,East,90,0.0,0.0,96,0.00,,---,0.00,VWS V14.01,2013-04-22 00:30:00,
2013-04-21 20:40:00,74.2,73.0,29.96,North,0,0.0,1.0,96,0.00,,---,0.00,VWS V14.01,2013-04-22 00:40:00,
2013-04-21 20:50:00,73.9,72.7,29.96,NNE,22,0.0,7.0,96,0.00,,---,0.00,VWS V14.01,2013-04-22 00:50:00,
2013-04-21 21:00:00,73.5,72.3,29.96,ENE,68,0.0,1.0,96,0.00,,---,0.00,VWS V14.01,2013-04-22 01:00:00,
2013-04-21 21:10:00,73.2,72.0,29.96,ENE,68,0.0,0.0,96,0.00,,---,0.00,VWS V14.01,2013-04-22 01:10:00,
2013-04-21 21:20:00,73.0,71.8,29.97,NE,45,0.0,2.0,96,0.00,,---,0.00,VWS V14.01,2013-04-22 01:20:00,
2013-04-21 21:30:00,73.0,71.8,29.98,NE,45,0.0,0.0,96,0.00,,---,0.00,VWS V14.01,2013-04-22 01:30:00,
2013-04-21 21:40:00,73.0,71.8,29.98,NE,45,0.0,0.0,96,0.00,,---,0.00,VWS V14.01,2013-04-22 01:40:00,
2013-04-21 21:50:00,73.0,71.8,29.98,NE,45,0.0,0.0,96,0.00,,---,0.00,VWS V14.01,2013-04-22 01:50:00,
2013-04-21 22:00:00,73.0,71.8,29.99,NE,45,0.0,0.0,96,0.00,,---,0.00,VWS V14.01,2013-04-22 02:00:00,
2013-04-21 22:10:00,73.0,71.8,29.99,NE,45,0.0,0.0,96,0.00,,---,0.00,VWS V14.01,2013-04-22 02:10:00,
2013-04-21 22:20:00,73.0,71.8,30.00,NE,45,0.0,0.0,96,0.00,,---,0.00,VWS V14.01,2013-04-22 02:20:00,
2013-04-21 22:30:00,73.0,71.8,29.99,NE,45,0.0,0.0,96,0.00,,---,0.00,VWS V14.01,2013-04-22 02:30:00,
2013-04-21 22:40:00,73.0,71.8,29.99,NE,45,0.0,0.0,96,0.00,,---,0.00,VWS V14.01,2013-04-22 02:40:00,
2013-04-21 22:50:00,73.0,71.8,30.00,NE,45,0.0,0.0,96,0.00,,---,0.00,VWS V14.01,2013-04-22 02:50:00,
2013-04-21 23:00:00,73.0,71.8,30.00,NE,45,0.0,0.0,96,0.00,,---,0.00,VWS V14.01,2013-04-22 03:00:00,
2013-04-21 23:10:00,73.0,71.8,30.00,NE,45,0.0,0.0,96,0.00,,---,0.00,VWS V14.01,2013-04-22 03:10:00,
2013-04-21 23:20:00,71.6,70.4,30.00,NE,45,0.0,0.0,96,0.00,,---,0.00,VWS V14.01,2013-04-22 03:20:00,
2013-04-21 23:30:00,71.5,70.3,29.99,NE,45,0.0,0.0,96,0.01,,---,0.01,VWS V14.01,2013-04-22 03:30:00,
2013-04-21 23:40:00,71.3,70.1,29.99,NE,45,0.0,0.0,96,0.01,,---,0.01,VWS V14.01,2013-04-22 03:40:00,
2013-04-21 23:50:00,71.1,69.9,29.99,NE,45,0.0,0.0,96,0.01,,---,0.01,VWS V14.01,2013-04-22 03:50:00,